sensor_id;sensor_type;location;lat;lon;timestamp;P1;durP1;ratioP1;P2;durP2;ratioP2
10383;SDS011;5238;43.508;4.980;2023-02-24T00:32:41;5.20;;;4.68;;
10383;SDS011;5238;43.508;4.980;2023-02-24T00:35:30;6.78;;;6.18;;
10383;SDS011;5238;43.508;4.980;2023-02-24T00:51:04;12.48;;;11.50;;
10383;SDS011;5238;43.508;4.980;2023-02-24T00:53:36;10.38;;;9.60;;
10383;SDS011;5238;43.508;4.980;2023-02-24T00:59:25;8.35;;;7.68;;
10383;SDS011;5238;43.508;4.980;2023-02-24T01:01:53;6.60;;;4.65;;
10383;SDS011;5238;43.508;4.980;2023-02-24T01:04:35;6.80;;;5.03;;
10383;SDS011;5238;43.508;4.980;2023-02-24T01:10:10;4.72;;;4.20;;
10383;SDS011;5238;43.508;4.980;2023-02-24T01:12:56;5.75;;;5.25;;
10383;SDS011;5238;43.508;4.980;2023-02-24T01:15:40;8.07;;;7.43;;
10383;SDS011;5238;43.508;4.980;2023-02-24T01:31:27;6.85;;;5.50;;
10383;SDS011;5238;43.508;4.980;2023-02-24T02:09:49;5.53;;;5.03;;
10383;SDS011;5238;43.508;4.980;2023-02-24T02:26:10;14.25;;;13.35;;
10383;SDS011;5238;43.508;4.980;2023-02-24T02:39:48;8.90;;;5.50;;
10383;SDS011;5238;43.508;4.980;2023-02-24T02:42:32;7.82;;;7.05;;
10383;SDS011;5238;43.508;4.980;2023-02-24T02:48:39;5.57;;;4.45;;
10383;SDS011;5238;43.508;4.980;2023-02-24T03:04:51;4.85;;;4.45;;
10383;SDS011;5238;43.508;4.980;2023-02-24T03:13:30;4.57;;;4.00;;
10383;SDS011;5238;43.508;4.980;2023-02-24T03:39:05;5.45;;;4.82;;
10383;SDS011;5238;43.508;4.980;2023-02-24T03:44:43;9.25;;;8.50;;
10383;SDS011;5238;43.508;4.980;2023-02-24T03:56:48;7.65;;;5.10;;
10383;SDS011;5238;43.508;4.980;2023-02-24T04:06:58;6.00;;;5.15;;
10383;SDS011;5238;43.508;4.980;2023-02-24T04:13:29;4.72;;;3.65;;
10383;SDS011;5238;43.508;4.980;2023-02-24T04:42:04;9.80;;;5.45;;
10383;SDS011;5238;43.508;4.980;2023-02-24T04:44:47;6.10;;;4.85;;
10383;SDS011;5238;43.508;4.980;2023-02-24T04:54:15;7.65;;;4.50;;
10383;SDS011;5238;43.508;4.980;2023-02-24T04:56:52;5.82;;;4.85;;
10383;SDS011;5238;43.508;4.980;2023-02-24T04:59:39;6.47;;;5.05;;
10383;SDS011;5238;43.508;4.980;2023-02-24T05:12:06;6.65;;;4.15;;
10383;SDS011;5238;43.508;4.980;2023-02-24T05:27:30;10.05;;;5.72;;
10383;SDS011;5238;43.508;4.980;2023-02-24T05:30:09;10.18;;;9.10;;
10383;SDS011;5238;43.508;4.980;2023-02-24T05:42:48;9.77;;;8.98;;
10383;SDS011;5238;43.508;4.980;2023-02-24T05:52:13;6.68;;;4.75;;
10383;SDS011;5238;43.508;4.980;2023-02-24T06:04:40;7.90;;;5.75;;
10383;SDS011;5238;43.508;4.980;2023-02-24T06:07:31;8.95;;;7.65;;
10383;SDS011;5238;43.508;4.980;2023-02-24T07:01:05;7.95;;;4.85;;
10383;SDS011;5238;43.508;4.980;2023-02-24T07:03:36;8.48;;;5.68;;
10383;SDS011;5238;43.508;4.980;2023-02-24T07:06:11;6.50;;;5.30;;
10383;SDS011;5238;43.508;4.980;2023-02-24T07:08:53;12.35;;;6.25;;
10383;SDS011;5238;43.508;4.980;2023-02-24T07:11:23;8.68;;;5.20;;
10383;SDS011;5238;43.508;4.980;2023-02-24T07:13:50;7.97;;;5.70;;
10383;SDS011;5238;43.508;4.980;2023-02-24T07:16:21;9.52;;;5.50;;
10383;SDS011;5238;43.508;4.980;2023-02-24T07:18:52;9.50;;;5.30;;
10383;SDS011;5238;43.508;4.980;2023-02-24T07:21:20;8.00;;;5.88;;
10383;SDS011;5238;43.508;4.980;2023-02-24T07:23:48;10.55;;;6.53;;
10383;SDS011;5238;43.508;4.980;2023-02-24T07:26:21;7.25;;;6.40;;
10383;SDS011;5238;43.508;4.980;2023-02-24T07:28:50;7.18;;;4.93;;
10383;SDS011;5238;43.508;4.980;2023-02-24T07:31:24;6.60;;;4.82;;
10383;SDS011;5238;43.508;4.980;2023-02-24T07:33:51;7.35;;;4.95;;
10383;SDS011;5238;43.508;4.980;2023-02-24T07:36:21;6.95;;;5.60;;
10383;SDS011;5238;43.508;4.980;2023-02-24T07:38:54;7.40;;;6.55;;
10383;SDS011;5238;43.508;4.980;2023-02-24T07:41:23;5.30;;;4.38;;
10383;SDS011;5238;43.508;4.980;2023-02-24T07:43:52;7.60;;;4.93;;
10383;SDS011;5238;43.508;4.980;2023-02-24T07:46:21;8.25;;;5.63;;
10383;SDS011;5238;43.508;4.980;2023-02-24T07:48:53;8.77;;;6.03;;
10383;SDS011;5238;43.508;4.980;2023-02-24T07:51:23;9.63;;;4.70;;
10383;SDS011;5238;43.508;4.980;2023-02-24T07:53:54;8.13;;;5.28;;
10383;SDS011;5238;43.508;4.980;2023-02-24T07:56:25;7.60;;;5.80;;
10383;SDS011;5238;43.508;4.980;2023-02-24T07:58:53;6.93;;;5.80;;
10383;SDS011;5238;43.508;4.980;2023-02-24T08:01:28;10.43;;;6.13;;
10383;SDS011;5238;43.508;4.980;2023-02-24T08:04:03;8.25;;;5.28;;
10383;SDS011;5238;43.508;4.980;2023-02-24T08:06:32;9.07;;;5.53;;
10383;SDS011;5238;43.508;4.980;2023-02-24T08:09:03;9.02;;;5.97;;
10383;SDS011;5238;43.508;4.980;2023-02-24T08:11:43;7.82;;;5.10;;
10383;SDS011;5238;43.508;4.980;2023-02-24T08:14:16;8.38;;;6.40;;
10383;SDS011;5238;43.508;4.980;2023-02-24T08:16:45;9.88;;;5.72;;
10383;SDS011;5238;43.508;4.980;2023-02-24T08:19:14;10.45;;;5.50;;
10383;SDS011;5238;43.508;4.980;2023-02-24T08:21:45;9.43;;;5.95;;
10383;SDS011;5238;43.508;4.980;2023-02-24T08:24:15;8.73;;;5.30;;
10383;SDS011;5238;43.508;4.980;2023-02-24T08:26:44;8.93;;;7.07;;
10383;SDS011;5238;43.508;4.980;2023-02-24T08:29:27;7.95;;;6.97;;
10383;SDS011;5238;43.508;4.980;2023-02-24T08:31:57;8.00;;;4.90;;
10383;SDS011;5238;43.508;4.980;2023-02-24T08:34:24;10.30;;;5.47;;
10383;SDS011;5238;43.508;4.980;2023-02-24T08:36:57;8.05;;;5.35;;
10383;SDS011;5238;43.508;4.980;2023-02-24T08:39:25;11.38;;;6.13;;
10383;SDS011;5238;43.508;4.980;2023-02-24T08:41:55;10.07;;;6.47;;
10383;SDS011;5238;43.508;4.980;2023-02-24T08:44:22;9.13;;;5.72;;
10383;SDS011;5238;43.508;4.980;2023-02-24T08:46:51;11.70;;;6.13;;
10383;SDS011;5238;43.508;4.980;2023-02-24T08:49:20;10.13;;;5.65;;
10383;SDS011;5238;43.508;4.980;2023-02-24T08:51:52;14.50;;;6.80;;
10383;SDS011;5238;43.508;4.980;2023-02-24T08:54:20;9.57;;;5.70;;
10383;SDS011;5238;43.508;4.980;2023-02-24T08:56:51;7.90;;;5.22;;
10383;SDS011;5238;43.508;4.980;2023-02-24T08:59:21;9.93;;;5.90;;
10383;SDS011;5238;43.508;4.980;2023-02-24T09:02:14;6.53;;;5.30;;
10383;SDS011;5238;43.508;4.980;2023-02-24T09:05:02;9.02;;;4.45;;
10383;SDS011;5238;43.508;4.980;2023-02-24T09:07:34;8.50;;;5.25;;
10383;SDS011;5238;43.508;4.980;2023-02-24T09:10:06;10.55;;;4.53;;
10383;SDS011;5238;43.508;4.980;2023-02-24T09:12:36;6.07;;;5.05;;
10383;SDS011;5238;43.508;4.980;2023-02-24T09:15:06;10.48;;;5.80;;
10383;SDS011;5238;43.508;4.980;2023-02-24T09:17:35;7.40;;;6.57;;
10383;SDS011;5238;43.508;4.980;2023-02-24T09:20:18;9.85;;;6.65;;
10383;SDS011;5238;43.508;4.980;2023-02-24T09:23:21;7.88;;;5.03;;
10383;SDS011;5238;43.508;4.980;2023-02-24T09:25:55;8.15;;;6.60;;
10383;SDS011;5238;43.508;4.980;2023-02-24T09:28:22;5.18;;;4.68;;
10383;SDS011;5238;43.508;4.980;2023-02-24T09:30:51;6.82;;;4.97;;
10383;SDS011;5238;43.508;4.980;2023-02-24T09:33:25;8.15;;;4.50;;
10383;SDS011;5238;43.508;4.980;2023-02-24T09:35:57;8.65;;;4.80;;
10383;SDS011;5238;43.508;4.980;2023-02-24T09:38:44;11.95;;;4.78;;
10383;SDS011;5238;43.508;4.980;2023-02-24T09:41:28;8.88;;;5.28;;
10383;SDS011;5238;43.508;4.980;2023-02-24T09:44:17;11.77;;;5.93;;
10383;SDS011;5238;43.508;4.980;2023-02-24T09:46:50;9.07;;;5.07;;
10383;SDS011;5238;43.508;4.980;2023-02-24T09:49:26;8.65;;;5.40;;
10383;SDS011;5238;43.508;4.980;2023-02-24T09:52:08;10.20;;;5.50;;
10383;SDS011;5238;43.508;4.980;2023-02-24T09:54:41;10.95;;;6.28;;
10383;SDS011;5238;43.508;4.980;2023-02-24T09:57:37;7.13;;;5.57;;
10383;SDS011;5238;43.508;4.980;2023-02-24T10:00:37;8.63;;;5.97;;
10383;SDS011;5238;43.508;4.980;2023-02-24T10:03:12;8.88;;;5.97;;
10383;SDS011;5238;43.508;4.980;2023-02-24T10:06:09;7.25;;;6.10;;
10383;SDS011;5238;43.508;4.980;2023-02-24T10:08:45;16.23;;;6.15;;
10383;SDS011;5238;43.508;4.980;2023-02-24T10:11:17;9.75;;;6.70;;
10383;SDS011;5238;43.508;4.980;2023-02-24T10:13:58;10.25;;;6.65;;
10383;SDS011;5238;43.508;4.980;2023-02-24T10:16:31;11.57;;;5.47;;
10383;SDS011;5238;43.508;4.980;2023-02-24T10:19:17;9.15;;;5.25;;
10383;SDS011;5238;43.508;4.980;2023-02-24T10:21:53;9.02;;;5.38;;
10383;SDS011;5238;43.508;4.980;2023-02-24T10:24:30;10.52;;;5.43;;
10383;SDS011;5238;43.508;4.980;2023-02-24T10:27:02;12.25;;;5.88;;
10383;SDS011;5238;43.508;4.980;2023-02-24T10:29:40;9.63;;;6.22;;
10383;SDS011;5238;43.508;4.980;2023-02-24T10:32:20;10.23;;;5.75;;
10383;SDS011;5238;43.508;4.980;2023-02-24T10:34:55;8.23;;;5.32;;
10383;SDS011;5238;43.508;4.980;2023-02-24T10:37:23;9.05;;;5.18;;
10383;SDS011;5238;43.508;4.980;2023-02-24T10:39:56;11.50;;;5.75;;
10383;SDS011;5238;43.508;4.980;2023-02-24T10:42:25;13.20;;;5.85;;
10383;SDS011;5238;43.508;4.980;2023-02-24T10:45:04;8.05;;;5.05;;
10383;SDS011;5238;43.508;4.980;2023-02-24T10:47:38;10.60;;;5.68;;
10383;SDS011;5238;43.508;4.980;2023-02-24T10:50:18;9.23;;;6.80;;
10383;SDS011;5238;43.508;4.980;2023-02-24T10:52:50;8.40;;;5.97;;
10383;SDS011;5238;43.508;4.980;2023-02-24T10:55:53;8.63;;;6.25;;
10383;SDS011;5238;43.508;4.980;2023-02-24T10:58:40;11.35;;;5.97;;
10383;SDS011;5238;43.508;4.980;2023-02-24T11:01:30;7.43;;;5.25;;
10383;SDS011;5238;43.508;4.980;2023-02-24T11:04:19;9.88;;;5.28;;
10383;SDS011;5238;43.508;4.980;2023-02-24T11:07:11;11.63;;;5.07;;
10383;SDS011;5238;43.508;4.980;2023-02-24T11:09:48;6.80;;;4.90;;
10383;SDS011;5238;43.508;4.980;2023-02-24T11:12:41;10.70;;;5.38;;
10383;SDS011;5238;43.508;4.980;2023-02-24T11:15:28;7.50;;;4.88;;
10383;SDS011;5238;43.508;4.980;2023-02-24T11:18:17;12.40;;;5.97;;
10383;SDS011;5238;43.508;4.980;2023-02-24T11:20:47;16.25;;;6.63;;
10383;SDS011;5238;43.508;4.980;2023-02-24T11:23:21;10.25;;;5.18;;
10383;SDS011;5238;43.508;4.980;2023-02-24T11:25:54;9.40;;;5.50;;
10383;SDS011;5238;43.508;4.980;2023-02-24T11:28:36;10.57;;;5.43;;
10383;SDS011;5238;43.508;4.980;2023-02-24T11:31:22;11.05;;;5.53;;
10383;SDS011;5238;43.508;4.980;2023-02-24T11:34:06;10.90;;;6.20;;
10383;SDS011;5238;43.508;4.980;2023-02-24T11:36:39;10.63;;;6.22;;
10383;SDS011;5238;43.508;4.980;2023-02-24T11:42:12;10.13;;;6.10;;
10383;SDS011;5238;43.508;4.980;2023-02-24T11:44:48;10.63;;;7.18;;
10383;SDS011;5238;43.508;4.980;2023-02-24T11:47:26;9.85;;;5.70;;
10383;SDS011;5238;43.508;4.980;2023-02-24T11:50:03;12.73;;;5.70;;
10383;SDS011;5238;43.508;4.980;2023-02-24T11:52:42;11.65;;;5.57;;
10383;SDS011;5238;43.508;4.980;2023-02-24T11:55:13;8.73;;;4.88;;
10383;SDS011;5238;43.508;4.980;2023-02-24T11:57:50;7.97;;;5.18;;
10383;SDS011;5238;43.508;4.980;2023-02-24T12:00:25;10.40;;;5.63;;
10383;SDS011;5238;43.508;4.980;2023-02-24T12:02:59;11.68;;;6.07;;
10383;SDS011;5238;43.508;4.980;2023-02-24T12:05:37;8.77;;;7.28;;
10383;SDS011;5238;43.508;4.980;2023-02-24T12:08:08;10.55;;;4.93;;
10383;SDS011;5238;43.508;4.980;2023-02-24T12:10:44;9.10;;;4.97;;
10383;SDS011;5238;43.508;4.980;2023-02-24T12:13:18;10.55;;;5.78;;
10383;SDS011;5238;43.508;4.980;2023-02-24T12:15:57;9.25;;;5.13;;
10383;SDS011;5238;43.508;4.980;2023-02-24T12:18:30;8.57;;;5.55;;
10383;SDS011;5238;43.508;4.980;2023-02-24T12:21:01;9.18;;;6.22;;
10383;SDS011;5238;43.508;4.980;2023-02-24T12:23:32;8.85;;;5.53;;
10383;SDS011;5238;43.508;4.980;2023-02-24T12:31:43;10.65;;;5.03;;
10383;SDS011;5238;43.508;4.980;2023-02-24T12:34:22;8.32;;;5.25;;
10383;SDS011;5238;43.508;4.980;2023-02-24T12:36:58;13.23;;;5.57;;
10383;SDS011;5238;43.508;4.980;2023-02-24T12:39:43;10.88;;;5.53;;
10383;SDS011;5238;43.508;4.980;2023-02-24T12:42:20;9.15;;;5.07;;
10383;SDS011;5238;43.508;4.980;2023-02-24T12:44:56;9.15;;;5.47;;
10383;SDS011;5238;43.508;4.980;2023-02-24T12:47:34;8.52;;;6.30;;
10383;SDS011;5238;43.508;4.980;2023-02-24T12:50:15;13.38;;;5.85;;
10383;SDS011;5238;43.508;4.980;2023-02-24T12:53:05;13.45;;;6.63;;
10383;SDS011;5238;43.508;4.980;2023-02-24T12:55:44;10.95;;;5.07;;
10383;SDS011;5238;43.508;4.980;2023-02-24T12:58:24;10.27;;;5.10;;
10383;SDS011;5238;43.508;4.980;2023-02-24T13:00:58;9.75;;;5.38;;
10383;SDS011;5238;43.508;4.980;2023-02-24T13:03:42;8.35;;;5.97;;
10383;SDS011;5238;43.508;4.980;2023-02-24T13:06:21;14.40;;;6.10;;
10383;SDS011;5238;43.508;4.980;2023-02-24T13:08:57;10.75;;;5.80;;
10383;SDS011;5238;43.508;4.980;2023-02-24T13:11:34;8.90;;;5.75;;
10383;SDS011;5238;43.508;4.980;2023-02-24T13:14:11;11.48;;;5.97;;
10383;SDS011;5238;43.508;4.980;2023-02-24T13:16:45;12.77;;;6.60;;
10383;SDS011;5238;43.508;4.980;2023-02-24T13:19:27;13.27;;;5.60;;
10383;SDS011;5238;43.508;4.980;2023-02-24T13:21:56;14.57;;;5.47;;
10383;SDS011;5238;43.508;4.980;2023-02-24T13:24:28;17.83;;;5.75;;
10383;SDS011;5238;43.508;4.980;2023-02-24T13:27:03;15.57;;;7.28;;
10383;SDS011;5238;43.508;4.980;2023-02-24T13:29:43;10.70;;;5.68;;
10383;SDS011;5238;43.508;4.980;2023-02-24T13:32:29;8.05;;;5.45;;
10383;SDS011;5238;43.508;4.980;2023-02-24T13:35:03;14.20;;;6.50;;
10383;SDS011;5238;43.508;4.980;2023-02-24T13:37:33;10.15;;;6.13;;
10383;SDS011;5238;43.508;4.980;2023-02-24T13:42:57;11.60;;;6.25;;
10383;SDS011;5238;43.508;4.980;2023-02-24T13:45:29;11.95;;;6.03;;
10383;SDS011;5238;43.508;4.980;2023-02-24T13:51:09;14.93;;;6.43;;
10383;SDS011;5238;43.508;4.980;2023-02-24T13:53:54;10.65;;;5.75;;
10383;SDS011;5238;43.508;4.980;2023-02-24T13:56:36;12.05;;;5.00;;
10383;SDS011;5238;43.508;4.980;2023-02-24T13:59:18;10.43;;;6.32;;
10383;SDS011;5238;43.508;4.980;2023-02-24T14:02:11;11.65;;;6.38;;
10383;SDS011;5238;43.508;4.980;2023-02-24T14:04:43;10.25;;;6.72;;
10383;SDS011;5238;43.508;4.980;2023-02-24T14:07:16;12.48;;;7.22;;
10383;SDS011;5238;43.508;4.980;2023-02-24T14:09:47;10.98;;;5.90;;
10383;SDS011;5238;43.508;4.980;2023-02-24T14:12:18;13.50;;;6.15;;
10383;SDS011;5238;43.508;4.980;2023-02-24T14:14:48;10.82;;;7.32;;
10383;SDS011;5238;43.508;4.980;2023-02-24T14:17:22;11.57;;;6.68;;
10383;SDS011;5238;43.508;4.980;2023-02-24T14:19:53;18.40;;;8.13;;
10383;SDS011;5238;43.508;4.980;2023-02-24T14:22:24;11.25;;;5.32;;
10383;SDS011;5238;43.508;4.980;2023-02-24T14:24:59;12.32;;;5.68;;
10383;SDS011;5238;43.508;4.980;2023-02-24T14:27:30;11.85;;;6.13;;
10383;SDS011;5238;43.508;4.980;2023-02-24T14:29:57;15.50;;;5.68;;
10383;SDS011;5238;43.508;4.980;2023-02-24T14:32:25;11.68;;;6.75;;
10383;SDS011;5238;43.508;4.980;2023-02-24T14:34:53;13.35;;;5.80;;
10383;SDS011;5238;43.508;4.980;2023-02-24T14:37:22;16.42;;;6.97;;
10383;SDS011;5238;43.508;4.980;2023-02-24T14:39:56;13.32;;;6.43;;
10383;SDS011;5238;43.508;4.980;2023-02-24T14:42:25;11.77;;;7.53;;
10383;SDS011;5238;43.508;4.980;2023-02-24T14:44:53;15.48;;;6.20;;
10383;SDS011;5238;43.508;4.980;2023-02-24T14:47:23;11.13;;;5.65;;
10383;SDS011;5238;43.508;4.980;2023-02-24T14:49:54;12.20;;;6.35;;
10383;SDS011;5238;43.508;4.980;2023-02-24T14:52:27;10.45;;;5.85;;
10383;SDS011;5238;43.508;4.980;2023-02-24T14:55:01;15.57;;;6.78;;
10383;SDS011;5238;43.508;4.980;2023-02-24T14:57:32;14.23;;;8.63;;
10383;SDS011;5238;43.508;4.980;2023-02-24T15:00:05;12.18;;;6.60;;
10383;SDS011;5238;43.508;4.980;2023-02-24T15:02:42;14.60;;;6.28;;
10383;SDS011;5238;43.508;4.980;2023-02-24T15:05:15;13.95;;;6.88;;
10383;SDS011;5238;43.508;4.980;2023-02-24T15:07:43;14.98;;;6.53;;
10383;SDS011;5238;43.508;4.980;2023-02-24T15:10:18;11.57;;;6.78;;
10383;SDS011;5238;43.508;4.980;2023-02-24T15:12:48;14.60;;;8.27;;
10383;SDS011;5238;43.508;4.980;2023-02-24T15:15:19;11.95;;;6.18;;
10383;SDS011;5238;43.508;4.980;2023-02-24T15:17:52;11.45;;;6.32;;
10383;SDS011;5238;43.508;4.980;2023-02-24T15:20:32;15.60;;;6.85;;
10383;SDS011;5238;43.508;4.980;2023-02-24T15:23:29;13.60;;;6.10;;
10383;SDS011;5238;43.508;4.980;2023-02-24T15:25:58;14.43;;;6.90;;
10383;SDS011;5238;43.508;4.980;2023-02-24T15:28:26;13.15;;;6.57;;
10383;SDS011;5238;43.508;4.980;2023-02-24T15:30:58;13.98;;;7.03;;
10383;SDS011;5238;43.508;4.980;2023-02-24T15:33:28;14.68;;;7.45;;
10383;SDS011;5238;43.508;4.980;2023-02-24T15:35:59;8.18;;;5.88;;
10383;SDS011;5238;43.508;4.980;2023-02-24T15:38:32;12.35;;;6.95;;
10383;SDS011;5238;43.508;4.980;2023-02-24T15:41:02;16.73;;;8.38;;
10383;SDS011;5238;43.508;4.980;2023-02-24T15:43:33;15.70;;;7.78;;
10383;SDS011;5238;43.508;4.980;2023-02-24T15:46:12;17.00;;;9.88;;
10383;SDS011;5238;43.508;4.980;2023-02-24T15:48:48;18.67;;;8.82;;
10383;SDS011;5238;43.508;4.980;2023-02-24T15:51:19;14.85;;;7.32;;
10383;SDS011;5238;43.508;4.980;2023-02-24T15:53:54;15.25;;;7.03;;
10383;SDS011;5238;43.508;4.980;2023-02-24T15:56:21;13.98;;;6.82;;
10383;SDS011;5238;43.508;4.980;2023-02-24T15:58:48;12.05;;;8.15;;
10383;SDS011;5238;43.508;4.980;2023-02-24T16:01:15;13.98;;;11.43;;
10383;SDS011;5238;43.508;4.980;2023-02-24T16:03:42;12.95;;;8.70;;
10383;SDS011;5238;43.508;4.980;2023-02-24T16:06:13;12.27;;;7.47;;
10383;SDS011;5238;43.508;4.980;2023-02-24T16:08:45;13.05;;;7.80;;
10383;SDS011;5238;43.508;4.980;2023-02-24T16:11:15;15.73;;;7.90;;
10383;SDS011;5238;43.508;4.980;2023-02-24T16:13:49;16.38;;;7.32;;
10383;SDS011;5238;43.508;4.980;2023-02-24T16:16:19;12.43;;;7.03;;
10383;SDS011;5238;43.508;4.980;2023-02-24T16:18:48;14.73;;;7.65;;
10383;SDS011;5238;43.508;4.980;2023-02-24T16:21:15;12.35;;;7.45;;
10383;SDS011;5238;43.508;4.980;2023-02-24T16:23:42;20.42;;;7.85;;
10383;SDS011;5238;43.508;4.980;2023-02-24T16:26:11;14.60;;;7.45;;
10383;SDS011;5238;43.508;4.980;2023-02-24T16:28:44;12.43;;;7.25;;
10383;SDS011;5238;43.508;4.980;2023-02-24T16:31:18;17.45;;;8.15;;
10383;SDS011;5238;43.508;4.980;2023-02-24T16:33:45;14.77;;;7.28;;
10383;SDS011;5238;43.508;4.980;2023-02-24T16:36:12;14.15;;;7.88;;
10383;SDS011;5238;43.508;4.980;2023-02-24T16:38:40;13.00;;;7.28;;
10383;SDS011;5238;43.508;4.980;2023-02-24T16:41:09;12.75;;;7.28;;
10383;SDS011;5238;43.508;4.980;2023-02-24T16:43:39;11.18;;;7.55;;
10383;SDS011;5238;43.508;4.980;2023-02-24T16:46:10;18.13;;;8.73;;
10383;SDS011;5238;43.508;4.980;2023-02-24T16:48:40;18.90;;;7.80;;
10383;SDS011;5238;43.508;4.980;2023-02-24T16:51:11;17.58;;;7.68;;
10383;SDS011;5238;43.508;4.980;2023-02-24T16:53:54;13.75;;;7.53;;
10383;SDS011;5238;43.508;4.980;2023-02-24T16:56:21;13.30;;;7.88;;
10383;SDS011;5238;43.508;4.980;2023-02-24T16:58:49;17.00;;;9.60;;
10383;SDS011;5238;43.508;4.980;2023-02-24T17:01:17;13.18;;;8.63;;
10383;SDS011;5238;43.508;4.980;2023-02-24T17:03:47;17.15;;;9.65;;
10383;SDS011;5238;43.508;4.980;2023-02-24T17:06:19;17.13;;;10.20;;
10383;SDS011;5238;43.508;4.980;2023-02-24T17:08:50;17.05;;;10.55;;
10383;SDS011;5238;43.508;4.980;2023-02-24T17:11:20;16.85;;;9.55;;
10383;SDS011;5238;43.508;4.980;2023-02-24T17:13:50;16.73;;;10.15;;
10383;SDS011;5238;43.508;4.980;2023-02-24T17:16:18;18.08;;;7.45;;
10383;SDS011;5238;43.508;4.980;2023-02-24T17:18:52;13.15;;;7.30;;
10383;SDS011;5238;43.508;4.980;2023-02-24T17:21:19;15.38;;;8.07;;
10383;SDS011;5238;43.508;4.980;2023-02-24T17:23:46;14.27;;;9.68;;
10383;SDS011;5238;43.508;4.980;2023-02-24T17:26:13;16.52;;;8.20;;
10383;SDS011;5238;43.508;4.980;2023-02-24T17:28:43;15.18;;;9.70;;
10383;SDS011;5238;43.508;4.980;2023-02-24T17:31:11;18.92;;;10.85;;
10383;SDS011;5238;43.508;4.980;2023-02-24T17:33:38;16.83;;;10.55;;
10383;SDS011;5238;43.508;4.980;2023-02-24T17:41:57;16.40;;;9.73;;
10383;SDS011;5238;43.508;4.980;2023-02-24T17:44:36;19.30;;;11.80;;
10383;SDS011;5238;43.508;4.980;2023-02-24T17:50:21;17.95;;;11.82;;
10383;SDS011;5238;43.508;4.980;2023-02-24T17:52:51;15.85;;;10.50;;
10383;SDS011;5238;43.508;4.980;2023-02-24T17:55:18;14.40;;;9.20;;
10383;SDS011;5238;43.508;4.980;2023-02-24T17:57:53;16.92;;;11.32;;
10383;SDS011;5238;43.508;4.980;2023-02-24T18:00:20;16.75;;;11.65;;
10383;SDS011;5238;43.508;4.980;2023-02-24T18:02:49;10.57;;;9.40;;
10383;SDS011;5238;43.508;4.980;2023-02-24T18:05:23;16.73;;;9.23;;
10383;SDS011;5238;43.508;4.980;2023-02-24T18:08:12;17.23;;;8.90;;
10383;SDS011;5238;43.508;4.980;2023-02-24T18:10:45;14.85;;;9.30;;
10383;SDS011;5238;43.508;4.980;2023-02-24T18:13:17;19.77;;;16.17;;
10383;SDS011;5238;43.508;4.980;2023-02-24T18:15:56;14.43;;;9.60;;
10383;SDS011;5238;43.508;4.980;2023-02-24T18:18:32;22.65;;;8.63;;
10383;SDS011;5238;43.508;4.980;2023-02-24T18:23:56;15.65;;;9.73;;
10383;SDS011;5238;43.508;4.980;2023-02-24T18:26:23;17.70;;;9.60;;
10383;SDS011;5238;43.508;4.980;2023-02-24T18:28:52;13.65;;;9.18;;
10383;SDS011;5238;43.508;4.980;2023-02-24T18:31:21;13.60;;;9.68;;
10383;SDS011;5238;43.508;4.980;2023-02-24T18:34:08;14.98;;;9.02;;
10383;SDS011;5238;43.508;4.980;2023-02-24T18:36:43;15.63;;;9.65;;
10383;SDS011;5238;43.508;4.980;2023-02-24T18:39:11;16.10;;;9.27;;
10383;SDS011;5238;43.508;4.980;2023-02-24T18:41:48;14.85;;;8.40;;
10383;SDS011;5238;43.508;4.980;2023-02-24T18:44:41;15.18;;;9.25;;
10383;SDS011;5238;43.508;4.980;2023-02-24T18:47:13;13.10;;;8.15;;
10383;SDS011;5238;43.508;4.980;2023-02-24T18:52:34;17.67;;;8.98;;
10383;SDS011;5238;43.508;4.980;2023-02-24T18:55:07;16.17;;;10.30;;
10383;SDS011;5238;43.508;4.980;2023-02-24T19:00:25;18.65;;;10.82;;
10383;SDS011;5238;43.508;4.980;2023-02-24T19:03:07;14.23;;;10.27;;
10383;SDS011;5238;43.508;4.980;2023-02-24T19:27:14;18.38;;;9.88;;
10383;SDS011;5238;43.508;4.980;2023-02-24T19:39:23;14.02;;;8.82;;
10383;SDS011;5238;43.508;4.980;2023-02-24T19:42:00;12.50;;;9.63;;
10383;SDS011;5238;43.508;4.980;2023-02-24T19:54:05;21.98;;;12.70;;
10383;SDS011;5238;43.508;4.980;2023-02-24T19:56:47;23.55;;;10.98;;
10383;SDS011;5238;43.508;4.980;2023-02-24T19:59:19;17.88;;;10.90;;
10383;SDS011;5238;43.508;4.980;2023-02-24T20:01:52;17.45;;;10.73;;
10383;SDS011;5238;43.508;4.980;2023-02-24T20:04:21;21.73;;;16.70;;
10383;SDS011;5238;43.508;4.980;2023-02-24T20:10:30;21.02;;;14.70;;
10383;SDS011;5238;43.508;4.980;2023-02-24T20:12:58;16.90;;;8.90;;
10383;SDS011;5238;43.508;4.980;2023-02-24T20:15:26;12.85;;;10.45;;
10383;SDS011;5238;43.508;4.980;2023-02-24T20:18:06;22.98;;;12.65;;
10383;SDS011;5238;43.508;4.980;2023-02-24T20:24:27;27.75;;;20.73;;
10383;SDS011;5238;43.508;4.980;2023-02-24T20:26:54;25.08;;;21.27;;
10383;SDS011;5238;43.508;4.980;2023-02-24T20:29:22;18.60;;;12.02;;
10383;SDS011;5238;43.508;4.980;2023-02-24T20:31:49;17.92;;;10.00;;
10383;SDS011;5238;43.508;4.980;2023-02-24T20:34:19;17.52;;;10.57;;
10383;SDS011;5238;43.508;4.980;2023-02-24T20:36:51;19.67;;;11.68;;
10383;SDS011;5238;43.508;4.980;2023-02-24T20:39:22;16.83;;;12.50;;
10383;SDS011;5238;43.508;4.980;2023-02-24T20:41:49;19.52;;;12.98;;
10383;SDS011;5238;43.508;4.980;2023-02-24T20:44:17;15.75;;;10.45;;
10383;SDS011;5238;43.508;4.980;2023-02-24T20:46:44;22.10;;;11.93;;
10383;SDS011;5238;43.508;4.980;2023-02-24T20:49:12;21.17;;;12.93;;
10383;SDS011;5238;43.508;4.980;2023-02-24T20:51:41;23.08;;;13.00;;
10383;SDS011;5238;43.508;4.980;2023-02-24T20:54:10;18.00;;;11.82;;
10383;SDS011;5238;43.508;4.980;2023-02-24T20:56:39;19.50;;;11.82;;
10383;SDS011;5238;43.508;4.980;2023-02-24T20:59:09;17.95;;;12.25;;
10383;SDS011;5238;43.508;4.980;2023-02-24T21:01:37;18.90;;;11.73;;
10383;SDS011;5238;43.508;4.980;2023-02-24T21:04:05;17.98;;;12.43;;
10383;SDS011;5238;43.508;4.980;2023-02-24T21:06:33;15.75;;;10.77;;
10383;SDS011;5238;43.508;4.980;2023-02-24T21:09:01;18.17;;;10.50;;
10383;SDS011;5238;43.508;4.980;2023-02-24T21:11:30;17.27;;;12.30;;
10383;SDS011;5238;43.508;4.980;2023-02-24T21:13:57;16.52;;;13.38;;
10383;SDS011;5238;43.508;4.980;2023-02-24T21:16:27;21.95;;;13.15;;
10383;SDS011;5238;43.508;4.980;2023-02-24T21:18:56;18.90;;;11.80;;
10383;SDS011;5238;43.508;4.980;2023-02-24T21:21:24;19.27;;;12.25;;
10383;SDS011;5238;43.508;4.980;2023-02-24T21:23:51;18.60;;;12.18;;
10383;SDS011;5238;43.508;4.980;2023-02-24T21:26:19;18.80;;;12.18;;
10383;SDS011;5238;43.508;4.980;2023-02-24T21:28:48;20.00;;;12.10;;
10383;SDS011;5238;43.508;4.980;2023-02-24T21:31:19;16.42;;;11.90;;
10383;SDS011;5238;43.508;4.980;2023-02-24T21:33:48;17.85;;;10.82;;
10383;SDS011;5238;43.508;4.980;2023-02-24T21:36:18;17.73;;;12.82;;
10383;SDS011;5238;43.508;4.980;2023-02-24T21:38:48;21.63;;;11.85;;
10383;SDS011;5238;43.508;4.980;2023-02-24T21:41:15;23.65;;;13.40;;
10383;SDS011;5238;43.508;4.980;2023-02-24T21:43:44;18.40;;;11.52;;
10383;SDS011;5238;43.508;4.980;2023-02-24T21:46:13;22.80;;;10.95;;
10383;SDS011;5238;43.508;4.980;2023-02-24T21:48:43;22.40;;;12.02;;
10383;SDS011;5238;43.508;4.980;2023-02-24T21:51:11;16.45;;;11.65;;
10383;SDS011;5238;43.508;4.980;2023-02-24T21:53:40;18.02;;;11.90;;
10383;SDS011;5238;43.508;4.980;2023-02-24T21:56:12;20.00;;;11.10;;
10383;SDS011;5238;43.508;4.980;2023-02-24T21:58:42;18.35;;;11.65;;
10383;SDS011;5238;43.508;4.980;2023-02-24T22:04:33;18.40;;;11.93;;
10383;SDS011;5238;43.508;4.980;2023-02-24T22:07:02;18.10;;;11.57;;
10383;SDS011;5238;43.508;4.980;2023-02-24T22:09:30;19.58;;;11.52;;
10383;SDS011;5238;43.508;4.980;2023-02-24T22:11:57;22.20;;;13.02;;
10383;SDS011;5238;43.508;4.980;2023-02-24T22:14:25;17.55;;;11.48;;
10383;SDS011;5238;43.508;4.980;2023-02-24T22:16:52;21.50;;;12.57;;
10383;SDS011;5238;43.508;4.980;2023-02-24T22:19:19;19.02;;;12.95;;
10383;SDS011;5238;43.508;4.980;2023-02-24T22:21:47;20.27;;;12.80;;